CMBH weather

Mount Belcher Heliport
Mount Belcher, British Columbia, Canada

Public forecast

Using degrees Celsius for public forecast. Weather courtesy of forecast.io.

Closest aviation weather report (METAR) to Mount Belcher Heliport

Closest report is Victoria International Airport, 11.6 nm (21.5 km) SSE. Retrieved 2020/04/05 09:00 UTC (50 minutes ago):

CYYJ 050900Z 26004KT 30SM BKN090 BKN140 05/00 A2966 RMK AC5AC2 SLP046

Closest aviation forecast (TAF) to Mount Belcher Heliport

Closest forecast is Victoria International Airport, 11.6 nm (21.5 km) SSE. Retrieved 2020/04/05 06:42 UTC (3 hours ago):

TAF CYYJ 050539Z 0506/0606 31006KT P6SM BKN070 BKN150 BECMG 0516/0518 36008KT FM060000 02006KT P6SM SCT080 BECMG 0601/0603 34005KT BECMG 0604/0606 26006KT RMK NXT FCST BY 051200Z